Time;durP1;ratioP1;P1;durP2;ratioP2;P2;SDS_P1;SDS_P2;PMS_P1;PMS_P2;Temp;Humidity;BMP_temperature;BMP_pressure;BME280_temperature;BME280_humidity;BME280_pressure;Samples;Min_cycle;Max_cycle;Signal;HPM_P1;HPM_P2
2022/01/31 00:01:46;;;;;;;20.27;2.47;;;;;;;;;;5000728;28;20053;-59
2022/01/31 00:04:11;;;;;;;16.98;2.60;;;;;;;;;;5000744;28;20056;-54
2022/01/31 00:06:37;;;;;;;20.60;1.60;;;;;;;;;;4999659;28;20022;-57
2022/01/31 00:09:02;;;;;;;23.50;3.05;;;;;;;;;;4998635;28;20303;-58
2022/01/31 00:11:28;;;;;;;17.38;1.58;;;;;;;;;;5000061;28;20049;-59
2022/01/31 00:14:09;;;;;;;18.20;2.38;;;;;;;;;;5004380;28;20041;-59
2022/01/31 00:16:35;;;;;;;30.58;2.92;;;;;;;;;;4997914;28;20583;-51
2022/01/31 00:19:00;;;;;;;28.40;3.67;;;;;;;;;;5002166;28;20044;-54
2022/01/31 00:21:27;;;;;;;19.92;2.80;;;;;;;;;;4997718;28;20045;-59
2022/01/31 00:23:52;;;;;;;22.60;2.55;;;;;;;;;;5000593;28;20030;-57
2022/01/31 00:26:18;;;;;;;23.50;2.03;;;;;;;;;;4998453;28;20037;-56
2022/01/31 00:28:43;;;;;;;17.35;2.92;;;;;;;;;;5002435;28;20165;-58
2022/01/31 00:31:09;;;;;;;17.88;2.63;;;;;;;;;;4999344;28;20108;-58
2022/01/31 00:33:34;;;;;;;31.23;2.83;;;;;;;;;;5003153;28;20166;-60
2022/01/31 00:36:00;;;;;;;30.98;2.60;;;;;;;;;;4998680;28;20049;-58
2022/01/31 00:38:25;;;;;;;23.70;2.38;;;;;;;;;;5000707;28;20037;-59
2022/01/31 00:40:51;;;;;;;19.58;3.65;;;;;;;;;;5000196;28;20481;-59
2022/01/31 00:43:19;;;;;;;18.25;3.10;;;;;;;;;;4996648;28;20346;-56
2022/01/31 00:45:57;;;;;;;27.67;4.53;;;;;;;;;;4999132;28;20022;-58
2022/01/31 00:48:25;;;;;;;31.17;4.22;;;;;;;;;;4999112;28;20494;-56
2022/01/31 00:50:51;;;;;;;21.75;2.05;;;;;;;;;;5003148;28;20022;-57
2022/01/31 00:53:16;;;;;;;16.38;2.10;;;;;;;;;;4998420;28;20080;-58
2022/01/31 00:55:42;;;;;;;11.43;1.13;;;;;;;;;;5004270;28;20030;-58
2022/01/31 00:58:07;;;;;;;26.10;2.85;;;;;;;;;;4998611;28;20038;-58
2022/01/31 01:00:33;;;;;;;17.75;2.10;;;;;;;;;;4971902;28;20890;-58
2022/01/31 01:02:59;;;;;;;22.58;2.08;;;;;;;;;;4964966;28;20039;-57
2022/01/31 01:05:24;;;;;;;21.83;2.58;;;;;;;;;;4961081;28;21226;-57
2022/01/31 01:07:50;;;;;;;19.73;1.70;;;;;;;;;;4955904;28;20043;-58
2022/01/31 01:10:17;;;;;;;19.70;1.73;;;;;;;;;;4957594;28;20039;-55
2022/01/31 01:12:44;;;;;;;14.45;2.35;;;;;;;;;;4991383;28;20062;-59
2022/01/31 01:15:10;;;;;;;24.55;2.50;;;;;;;;;;4961364;28;20726;-59
2022/01/31 01:17:36;;;;;;;26.70;2.05;;;;;;;;;;4963131;28;20035;-54
2022/01/31 01:20:03;;;;;;;11.70;1.75;;;;;;;;;;4963719;28;20335;-57
2022/01/31 01:22:29;;;;;;;31.27;2.35;;;;;;;;;;4962892;28;20034;-56
2022/01/31 01:24:54;;;;;;;22.33;1.67;;;;;;;;;;4997890;28;20503;-57
2022/01/31 01:27:20;;;;;;;22.70;2.70;;;;;;;;;;4961095;28;20071;-58
2022/01/31 01:29:46;;;;;;;13.57;1.45;;;;;;;;;;4965337;28;20097;-58
2022/01/31 01:32:13;;;;;;;26.35;1.75;;;;;;;;;;4993271;28;20113;-58
2022/01/31 01:34:38;;;;;;;29.65;2.63;;;;;;;;;;4964670;28;20035;-58
2022/01/31 01:37:04;;;;;;;20.35;2.13;;;;;;;;;;4961719;28;20051;-58
2022/01/31 01:39:30;;;;;;;9.85;2.42;;;;;;;;;;4966894;28;20031;-58
2022/01/31 01:41:56;;;;;;;26.15;2.97;;;;;;;;;;4966047;28;20524;-59
2022/01/31 01:44:45;;;;;;;13.70;2.45;;;;;;;;;;4959794;28;20031;-57
2022/01/31 01:47:12;;;;;;;13.52;1.48;;;;;;;;;;4960889;28;20030;-58
2022/01/31 01:49:37;;;;;;;28.77;2.85;;;;;;;;;;4963306;28;20035;-56
2022/01/31 01:52:03;;;;;;;26.77;1.95;;;;;;;;;;4965244;28;20035;-57
2022/01/31 01:54:29;;;;;;;21.83;3.33;;;;;;;;;;4962813;28;20031;-57
2022/01/31 01:56:55;;;;;;;13.80;2.28;;;;;;;;;;4960323;28;20038;-58
2022/01/31 01:59:22;;;;;;;22.80;2.17;;;;;;;;;;4965757;28;20043;-58
2022/01/31 02:01:47;;;;;;;31.60;3.60;;;;;;;;;;4962848;28;20482;-58
2022/01/31 02:04:13;;;;;;;35.35;3.55;;;;;;;;;;4964945;28;20043;-57
2022/01/31 02:06:40;;;;;;;11.10;2.00;;;;;;;;;;4960275;28;20050;-58
2022/01/31 02:09:06;;;;;;;21.90;2.28;;;;;;;;;;4960632;28;20420;-59
2022/01/31 02:11:31;;;;;;;29.58;2.10;;;;;;;;;;4964405;28;20038;-57
2022/01/31 02:13:57;;;;;;;22.17;2.25;;;;;;;;;;4962704;28;20034;-58
2022/01/31 02:16:22;;;;;;;8.73;1.33;;;;;;;;;;4963176;28;20062;-58
2022/01/31 02:18:50;;;;;;;33.20;1.92;;;;;;;;;;4965627;28;20062;-58
2022/01/31 02:21:16;;;;;;;27.52;2.55;;;;;;;;;;4967674;28;20600;-58
2022/01/31 02:23:43;;;;;;;16.42;2.67;;;;;;;;;;4971204;28;20138;-58
2022/01/31 02:26:09;;;;;;;24.70;1.92;;;;;;;;;;4963093;28;20078;-58
2022/01/31 02:28:36;;;;;;;24.50;2.03;;;;;;;;;;4965507;28;20030;-59
2022/01/31 02:31:04;;;;;;;14.32;1.85;;;;;;;;;;4966482;28;20035;-56
2022/01/31 02:33:30;;;;;;;21.05;1.77;;;;;;;;;;4960806;28;20141;-57
2022/01/31 02:35:58;;;;;;;16.45;3.00;;;;;;;;;;4962146;28;20482;-57
2022/01/31 02:38:24;;;;;;;11.18;1.00;;;;;;;;;;4962220;28;20027;-57
2022/01/31 02:40:50;;;;;;;15.25;1.38;;;;;;;;;;4961892;28;20077;-55
2022/01/31 02:43:23;;;;;;;14.07;2.08;;;;;;;;;;4962134;28;20035;-58
2022/01/31 02:45:49;;;;;;;17.63;1.65;;;;;;;;;;4962648;28;20576;-58
2022/01/31 02:48:17;;;;;;;21.88;1.10;;;;;;;;;;4956718;28;20027;-58
2022/01/31 02:50:43;;;;;;;18.90;1.58;;;;;;;;;;4958367;28;20403;-58
2022/01/31 02:53:14;;;;;;;20.67;1.75;;;;;;;;;;4962260;28;20117;-58
2022/01/31 02:55:43;;;;;;;15.60;2.92;;;;;;;;;;4962175;28;20302;-58
2022/01/31 02:58:09;;;;;;;15.73;1.75;;;;;;;;;;4961842;28;20050;-58
2022/01/31 03:00:36;;;;;;;16.63;1.85;;;;;;;;;;4967090;28;20093;-58
2022/01/31 03:03:03;;;;;;;16.00;1.52;;;;;;;;;;4960660;28;20126;-58
2022/01/31 03:05:28;;;;;;;14.02;2.55;;;;;;;;;;4965694;28;20083;-58
2022/01/31 03:07:54;;;;;;;21.90;1.80;;;;;;;;;;4994697;28;20749;-58
2022/01/31 03:10:20;;;;;;;14.30;2.25;;;;;;;;;;4961820;28;20027;-57
2022/01/31 03:12:45;;;;;;;23.73;1.75;;;;;;;;;;4963694;28;20043;-58
2022/01/31 03:15:11;;;;;;;18.73;1.55;;;;;;;;;;4965705;28;20049;-57
2022/01/31 03:17:37;;;;;;;17.60;1.48;;;;;;;;;;4961883;28;20098;-55
2022/01/31 03:20:03;;;;;;;27.45;1.77;;;;;;;;;;4961877;28;20081;-58
2022/01/31 03:22:30;;;;;;;23.50;2.00;;;;;;;;;;4960307;28;20614;-58
2022/01/31 03:24:56;;;;;;;10.93;2.38;;;;;;;;;;4956463;28;20046;-58
2022/01/31 03:27:21;;;;;;;16.08;1.27;;;;;;;;;;4958056;28;20027;-58
2022/01/31 03:29:46;;;;;;;20.80;3.03;;;;;;;;;;4961430;28;20030;-57
2022/01/31 03:32:12;;;;;;;16.60;1.23;;;;;;;;;;4961651;28;20094;-59
2022/01/31 03:34:37;;;;;;;15.75;1.30;;;;;;;;;;4960514;28;20026;-58
2022/01/31 03:37:03;;;;;;;23.75;1.70;;;;;;;;;;4967223;28;20051;-58
2022/01/31 03:39:28;;;;;;;23.85;1.60;;;;;;;;;;4964337;28;20112;-58
2022/01/31 03:41:54;;;;;;;34.05;2.58;;;;;;;;;;4992643;28;20027;-58
2022/01/31 03:44:19;;;;;;;26.08;2.25;;;;;;;;;;4958839;28;20635;-58
2022/01/31 03:46:45;;;;;;;9.95;1.77;;;;;;;;;;4960565;28;20038;-58
2022/01/31 03:49:11;;;;;;;20.17;1.83;;;;;;;;;;4963238;28;20031;-59
2022/01/31 03:51:36;;;;;;;18.05;1.70;;;;;;;;;;4963795;28;20045;-59
2022/01/31 03:54:03;;;;;;;29.85;2.95;;;;;;;;;;4958197;28;20034;-58
2022/01/31 03:56:29;;;;;;;27.35;2.72;;;;;;;;;;4955970;28;20051;-58
2022/01/31 03:58:55;;;;;;;32.08;2.53;;;;;;;;;;4960940;28;20089;-58
2022/01/31 04:01:23;;;;;;;18.05;2.25;;;;;;;;;;4962934;28;20465;-58
2022/01/31 04:03:48;;;;;;;21.05;1.73;;;;;;;;;;4962267;28;20023;-59
2022/01/31 04:06:14;;;;;;;25.55;1.77;;;;;;;;;;4961325;28;20038;-58
2022/01/31 04:08:39;;;;;;;11.52;1.45;;;;;;;;;;4963569;28;20038;-58
2022/01/31 04:11:05;;;;;;;22.92;2.03;;;;;;;;;;4994493;28;20417;-58
2022/01/31 04:13:30;;;;;;;22.85;2.47;;;;;;;;;;4961671;28;20030;-58
2022/01/31 04:15:56;;;;;;;26.13;2.78;;;;;;;;;;4962512;28;20039;-58
2022/01/31 04:18:21;;;;;;;19.02;2.00;;;;;;;;;;4961486;28;20327;-58
2022/01/31 04:20:47;;;;;;;23.83;2.50;;;;;;;;;;4963781;28;20035;-59
2022/01/31 04:23:16;;;;;;;23.20;2.35;;;;;;;;;;4961657;28;20495;-58
2022/01/31 04:25:44;;;;;;;20.52;1.58;;;;;;;;;;4960221;28;20038;-58
2022/01/31 04:28:21;;;;;;;26.42;2.63;;;;;;;;;;4966357;28;20438;-57
2022/01/31 04:30:54;;;;;;;16.77;1.75;;;;;;;;;;4961157;28;20066;-58
2022/01/31 04:33:21;;;;;;;30.98;3.10;;;;;;;;;;4959178;28;20030;-58
2022/01/31 04:35:47;;;;;;;28.90;1.55;;;;;;;;;;4961816;28;20029;-59
2022/01/31 04:38:12;;;;;;;20.75;1.73;;;;;;;;;;4961682;28;20046;-59
2022/01/31 04:40:38;;;;;;;32.83;2.72;;;;;;;;;;4964553;28;20042;-59
2022/01/31 04:43:03;;;;;;;31.30;3.00;;;;;;;;;;4964978;28;20041;-59
2022/01/31 04:45:29;;;;;;;14.18;1.70;;;;;;;;;;4960349;28;20027;-59
2022/01/31 04:47:55;;;;;;;24.13;2.53;;;;;;;;;;4959491;28;20027;-58
2022/01/31 04:50:20;;;;;;;29.35;1.67;;;;;;;;;;4962226;28;21012;-58
2022/01/31 04:52:46;;;;;;;14.18;1.85;;;;;;;;;;4966842;28;20068;-57
2022/01/31 04:55:11;;;;;;;18.88;1.25;;;;;;;;;;4969535;28;20030;-58
2022/01/31 04:57:38;;;;;;;9.68;1.80;;;;;;;;;;4966058;28;20027;-58
2022/01/31 05:00:06;;;;;;;13.57;2.63;;;;;;;;;;4968633;28;20042;-57
2022/01/31 05:02:32;;;;;;;23.05;1.88;;;;;;;;;;4969195;28;20639;-58
2022/01/31 05:04:58;;;;;;;25.00;1.77;;;;;;;;;;5014776;28;20038;-59
2022/01/31 05:07:23;;;;;;;18.77;2.08;;;;;;;;;;4967531;28;20034;-58
2022/01/31 05:09:49;;;;;;;17.17;1.92;;;;;;;;;;4967553;28;20046;-60
2022/01/31 05:12:15;;;;;;;24.35;1.75;;;;;;;;;;4967564;28;20038;-57
2022/01/31 05:14:40;;;;;;;10.27;2.33;;;;;;;;;;4967710;28;20383;-59
2022/01/31 05:17:07;;;;;;;19.75;1.95;;;;;;;;;;4964905;28;20071;-58
2022/01/31 05:19:32;;;;;;;19.52;2.00;;;;;;;;;;4964578;28;20023;-57
2022/01/31 05:21:58;;;;;;;12.70;2.15;;;;;;;;;;4966708;28;20042;-57
2022/01/31 05:24:23;;;;;;;11.80;1.77;;;;;;;;;;4966061;28;20189;-59
2022/01/31 05:26:50;;;;;;;14.02;1.85;;;;;;;;;;4968565;28;20138;-58
2022/01/31 05:29:20;;;;;;;26.35;1.85;;;;;;;;;;4964958;28;20526;-55
2022/01/31 05:31:46;;;;;;;18.90;2.45;;;;;;;;;;4964881;28;20521;-58
2022/01/31 05:34:12;;;;;;;17.42;2.38;;;;;;;;;;4965040;28;20033;-58
2022/01/31 05:36:39;;;;;;;14.70;1.58;;;;;;;;;;4965119;28;20311;-58
2022/01/31 05:39:05;;;;;;;22.42;2.40;;;;;;;;;;4968083;28;20117;-57
2022/01/31 05:41:30;;;;;;;24.73;2.58;;;;;;;;;;4962018;28;20042;-58
2022/01/31 05:43:56;;;;;;;14.95;2.58;;;;;;;;;;4963327;28;20043;-58
2022/01/31 05:46:21;;;;;;;25.80;3.30;;;;;;;;;;4965116;28;20023;-58
2022/01/31 05:48:47;;;;;;;36.72;2.53;;;;;;;;;;4963570;28;20031;-58
2022/01/31 05:51:18;;;;;;;15.80;1.30;;;;;;;;;;4968732;28;20224;-58
2022/01/31 05:53:46;;;;;;;25.03;2.13;;;;;;;;;;4966911;28;20030;-58
2022/01/31 05:56:16;;;;;;;14.07;1.27;;;;;;;;;;4967015;28;20288;-58
2022/01/31 05:58:42;;;;;;;15.48;1.42;;;;;;;;;;4960358;28;20030;-58
2022/01/31 06:01:08;;;;;;;16.85;1.52;;;;;;;;;;4966644;28;20022;-59
2022/01/31 06:03:34;;;;;;;34.05;1.75;;;;;;;;;;4964386;28;20034;-59
2022/01/31 06:06:00;;;;;;;20.77;1.67;;;;;;;;;;4963478;28;20030;-58
2022/01/31 06:08:26;;;;;;;9.63;1.55;;;;;;;;;;4957500;28;20560;-58
2022/01/31 06:10:51;;;;;;;14.73;3.28;;;;;;;;;;4960097;28;20042;-59
2022/01/31 06:13:23;;;;;;;15.57;1.58;;;;;;;;;;4965264;28;20406;-58
2022/01/31 06:15:49;;;;;;;16.95;2.03;;;;;;;;;;4963812;28;20081;-59
2022/01/31 06:18:15;;;;;;;25.70;2.95;;;;;;;;;;4964605;28;20281;-57
2022/01/31 06:20:41;;;;;;;31.27;2.88;;;;;;;;;;4962680;28;20364;-58
2022/01/31 06:23:07;;;;;;;18.73;2.80;;;;;;;;;;4962562;28;20073;-58
2022/01/31 06:25:34;;;;;;;19.27;2.53;;;;;;;;;;4962111;28;20510;-58
2022/01/31 06:27:59;;;;;;;21.25;2.70;;;;;;;;;;4965895;28;20014;-58
2022/01/31 06:30:25;;;;;;;22.77;2.75;;;;;;;;;;4964260;28;20097;-58
2022/01/31 06:32:52;;;;;;;19.23;2.15;;;;;;;;;;4959593;28;20035;-58
2022/01/31 06:35:18;;;;;;;16.50;2.15;;;;;;;;;;4962388;28;20045;-58
2022/01/31 06:37:43;;;;;;;13.00;1.65;;;;;;;;;;4993600;28;20047;-58
2022/01/31 06:40:09;;;;;;;22.38;1.55;;;;;;;;;;4962283;28;20027;-58
2022/01/31 06:42:35;;;;;;;19.23;1.70;;;;;;;;;;4967446;28;20034;-58
2022/01/31 06:45:01;;;;;;;14.65;2.13;;;;;;;;;;4963341;28;20066;-58
2022/01/31 06:47:27;;;;;;;10.32;1.13;;;;;;;;;;4960831;28;20030;-58
2022/01/31 06:49:53;;;;;;;20.95;2.35;;;;;;;;;;4962392;28;20031;-57
2022/01/31 06:52:18;;;;;;;29.23;2.67;;;;;;;;;;4962105;28;20042;-58
2022/01/31 06:54:49;;;;;;;13.93;1.80;;;;;;;;;;4966007;28;20133;-58
2022/01/31 06:57:14;;;;;;;24.25;2.15;;;;;;;;;;4960627;28;20030;-57
2022/01/31 06:59:40;;;;;;;13.07;1.77;;;;;;;;;;4992175;28;20050;-57
2022/01/31 07:02:05;;;;;;;17.33;1.33;;;;;;;;;;4960505;28;20081;-58
2022/01/31 07:04:31;;;;;;;16.75;2.17;;;;;;;;;;4958976;28;20046;-58
2022/01/31 07:06:56;;;;;;;16.10;1.65;;;;;;;;;;4962066;28;20034;-58
2022/01/31 07:09:22;;;;;;;23.38;2.90;;;;;;;;;;4963279;28;20027;-58
2022/01/31 07:11:50;;;;;;;28.10;2.40;;;;;;;;;;4966654;28;20046;-59
2022/01/31 07:14:31;;;;;;;14.00;1.85;;;;;;;;;;4964890;28;20117;-56
2022/01/31 07:17:02;;;;;;;18.85;2.28;;;;;;;;;;4961016;28;20038;-58
2022/01/31 07:19:30;;;;;;;21.92;2.75;;;;;;;;;;4962525;28;20449;-57
2022/01/31 07:21:56;;;;;;;19.00;2.17;;;;;;;;;;4961337;28;20042;-58
2022/01/31 07:24:31;;;;;;;24.00;2.55;;;;;;;;;;4960358;28;20037;-57
2022/01/31 07:26:57;;;;;;;22.10;2.58;;;;;;;;;;4964140;28;20027;-58
2022/01/31 07:29:24;;;;;;;21.42;1.95;;;;;;;;;;4965829;28;20041;-58
2022/01/31 07:31:50;;;;;;;24.02;2.38;;;;;;;;;;4964319;28;20031;-57
2022/01/31 07:34:17;;;;;;;19.58;1.63;;;;;;;;;;4966179;28;20050;-58
2022/01/31 07:36:44;;;;;;;14.40;1.70;;;;;;;;;;4964938;28;20055;-58
2022/01/31 07:39:10;;;;;;;23.60;2.53;;;;;;;;;;4963502;28;20042;-58
2022/01/31 07:41:35;;;;;;;20.65;2.10;;;;;;;;;;4963664;28;20073;-58
2022/01/31 07:44:01;;;;;;;17.83;1.63;;;;;;;;;;4963379;28;20058;-58
2022/01/31 07:46:27;;;;;;;23.25;2.80;;;;;;;;;;4969019;28;20374;-58
2022/01/31 07:48:54;;;;;;;17.73;2.35;;;;;;;;;;4962422;28;20031;-57
2022/01/31 07:51:21;;;;;;;19.17;2.50;;;;;;;;;;4967451;28;20833;-58
2022/01/31 07:53:47;;;;;;;20.95;2.85;;;;;;;;;;4969807;28;20023;-57
2022/01/31 07:56:15;;;;;;;19.70;2.33;;;;;;;;;;4987738;28;20046;-58
2022/01/31 07:58:41;;;;;;;20.08;2.67;;;;;;;;;;4964226;28;20031;-58
2022/01/31 08:01:07;;;;;;;23.50;2.15;;;;;;;;;;4964439;28;20038;-57
2022/01/31 08:03:34;;;;;;;23.42;1.85;;;;;;;;;;4965218;28;20027;-57
2022/01/31 08:06:00;;;;;;;18.00;2.20;;;;;;;;;;4960426;28;20031;-57
2022/01/31 08:08:29;;;;;;;11.43;1.40;;;;;;;;;;4960735;28;20039;-57
2022/01/31 08:10:55;;;;;;;17.27;1.23;;;;;;;;;;4963602;28;20026;-57
2022/01/31 08:13:21;;;;;;;16.90;1.75;;;;;;;;;;4960771;28;20023;-58
2022/01/31 08:15:49;;;;;;;23.58;1.85;;;;;;;;;;4960540;28;20125;-57
2022/01/31 08:18:15;;;;;;;23.00;2.05;;;;;;;;;;4966022;28;20053;-52
2022/01/31 08:20:41;;;;;;;16.70;1.70;;;;;;;;;;4966061;28;20038;-57
2022/01/31 08:23:08;;;;;;;9.23;1.35;;;;;;;;;;4962045;28;20549;-57
2022/01/31 08:25:36;;;;;;;23.95;2.53;;;;;;;;;;4960066;28;20078;-58
2022/01/31 08:28:07;;;;;;;19.48;2.10;;;;;;;;;;4964816;28;20041;-58
2022/01/31 08:30:44;;;;;;;23.85;1.67;;;;;;;;;;4960956;28;20037;-58
2022/01/31 08:33:25;;;;;;;21.40;3.13;;;;;;;;;;4961848;28;20293;-58
2022/01/31 08:35:50;;;;;;;9.57;1.58;;;;;;;;;;4964779;28;20042;-58
2022/01/31 08:38:18;;;;;;;16.33;1.63;;;;;;;;;;4997903;28;20061;-57
2022/01/31 08:40:45;;;;;;;25.13;2.92;;;;;;;;;;4959477;28;20454;-56
2022/01/31 08:43:12;;;;;;;24.77;1.75;;;;;;;;;;4957229;28;20027;-58
2022/01/31 08:45:38;;;;;;;14.93;1.75;;;;;;;;;;4960256;28;20031;-58
2022/01/31 08:48:04;;;;;;;22.50;1.83;;;;;;;;;;4959657;28;20031;-58
2022/01/31 08:50:29;;;;;;;17.30;2.05;;;;;;;;;;4991470;28;20038;-58
2022/01/31 08:52:55;;;;;;;17.35;1.83;;;;;;;;;;4965689;28;20513;-57
2022/01/31 08:55:21;;;;;;;15.10;1.35;;;;;;;;;;4960904;28;20035;-58
2022/01/31 08:57:52;;;;;;;16.90;2.70;;;;;;;;;;4966041;28;20071;-58
2022/01/31 09:00:18;;;;;;;18.80;1.98;;;;;;;;;;4968120;28;20034;-57
2022/01/31 09:02:58;;;;;;;24.50;2.22;;;;;;;;;;4966707;28;20113;-58
2022/01/31 09:05:24;;;;;;;27.38;2.90;;;;;;;;;;4960437;28;20045;-59
2022/01/31 09:07:50;;;;;;;20.52;2.53;;;;;;;;;;4968657;28;20514;-58
2022/01/31 09:10:15;;;;;;;23.52;2.40;;;;;;;;;;4962724;28;20027;-58
2022/01/31 09:12:41;;;;;;;10.73;1.48;;;;;;;;;;4960997;28;20035;-57
2022/01/31 09:15:07;;;;;;;14.63;1.40;;;;;;;;;;4959159;28;20031;-58
2022/01/31 09:17:35;;;;;;;16.90;1.48;;;;;;;;;;4965292;28;20510;-58
2022/01/31 09:20:00;;;;;;;22.38;1.75;;;;;;;;;;4963532;28;20042;-58
2022/01/31 09:22:26;;;;;;;19.13;1.75;;;;;;;;;;4962209;28;20030;-58
2022/01/31 09:24:53;;;;;;;15.23;2.05;;;;;;;;;;4961322;28;20035;-59
2022/01/31 09:27:18;;;;;;;14.25;1.58;;;;;;;;;;4955329;28;21268;-58
2022/01/31 09:29:44;;;;;;;18.83;2.45;;;;;;;;;;4957203;28;20038;-58
2022/01/31 09:32:11;;;;;;;19.48;3.17;;;;;;;;;;4962419;28;20104;-58
2022/01/31 09:34:37;;;;;;;19.33;3.25;;;;;;;;;;4956690;28;20562;-58
2022/01/31 09:37:03;;;;;;;17.23;2.42;;;;;;;;;;4962022;28;20113;-58
2022/01/31 09:39:30;;;;;;;23.95;3.25;;;;;;;;;;4964382;28;20521;-58
2022/01/31 09:41:57;;;;;;;10.75;1.83;;;;;;;;;;4963659;28;20034;-56
2022/01/31 09:45:37;;;;;;;22.55;2.22;;;;;;;;;;4968506;28;20077;-57
2022/01/31 09:49:47;;;;;;;22.88;2.60;;;;;;;;;;4968716;28;20069;-58
2022/01/31 09:52:13;;;;;;;32.45;3.00;;;;;;;;;;4961663;28;20034;-59
2022/01/31 09:54:38;;;;;;;28.08;1.88;;;;;;;;;;4965368;28;20049;-57
2022/01/31 09:57:04;;;;;;;18.60;1.90;;;;;;;;;;4961970;28;20046;-57
2022/01/31 09:59:30;;;;;;;9.00;1.10;;;;;;;;;;4967497;28;20371;-56
2022/01/31 10:01:57;;;;;;;12.93;1.73;;;;;;;;;;4959585;28;20042;-58
2022/01/31 10:04:27;;;;;;;15.65;1.60;;;;;;;;;;4962300;28;20038;-58
2022/01/31 10:06:55;;;;;;;23.33;3.35;;;;;;;;;;4962233;28;20054;-56
2022/01/31 10:09:27;;;;;;;25.00;2.47;;;;;;;;;;4962860;28;20383;-55
2022/01/31 10:17:43;;;;;;;26.50;3.35;;;;;;;;;;4962917;28;20148;-54
2022/01/31 10:20:18;;;;;;;22.60;2.88;;;;;;;;;;4964130;28;20077;-58
2022/01/31 10:22:44;;;;;;;21.13;1.98;;;;;;;;;;4965364;28;20034;-58
2022/01/31 10:25:14;;;;;;;26.20;2.30;;;;;;;;;;4967946;28;20470;-59
2022/01/31 10:27:46;;;;;;;26.90;3.05;;;;;;;;;;4966500;28;20026;-58
2022/01/31 10:30:15;;;;;;;18.15;2.30;;;;;;;;;;4958736;28;20109;-57
2022/01/31 10:32:44;;;;;;;16.30;2.50;;;;;;;;;;4947359;28;20038;-56
2022/01/31 10:35:17;;;;;;;18.95;2.05;;;;;;;;;;4955698;28;20042;-58
2022/01/31 10:37:43;;;;;;;23.58;2.25;;;;;;;;;;4959953;28;20085;-57
2022/01/31 10:46:11;;;;;;;29.20;2.40;;;;;;;;;;4960694;28;20533;-57
2022/01/31 10:53:50;;;;;;;14.00;1.80;;;;;;;;;;4963136;28;20030;-56
2022/01/31 10:56:16;;;;;;;21.90;3.03;;;;;;;;;;4956661;28;20046;-56
2022/01/31 10:59:00;;;;;;;8.80;1.58;;;;;;;;;;4964449;28;20675;-56
2022/01/31 11:01:27;;;;;;;21.55;2.70;;;;;;;;;;4955565;28;20035;-54
2022/01/31 11:03:54;;;;;;;17.10;1.88;;;;;;;;;;4960844;28;20030;-57
2022/01/31 11:06:20;;;;;;;22.92;2.40;;;;;;;;;;4960174;28;20027;-55
2022/01/31 11:08:47;;;;;;;23.05;2.80;;;;;;;;;;4958122;28;20031;-57
2022/01/31 11:11:12;;;;;;;21.98;2.85;;;;;;;;;;4962000;28;20041;-57
2022/01/31 11:13:39;;;;;;;15.27;1.65;;;;;;;;;;4960768;28;20034;-58
2022/01/31 11:16:06;;;;;;;15.93;2.17;;;;;;;;;;4970830;28;20042;-56
2022/01/31 11:18:34;;;;;;;27.42;2.17;;;;;;;;;;4963716;28;20114;-57
2022/01/31 11:21:05;;;;;;;14.77;1.95;;;;;;;;;;4964745;28;20097;-57
2022/01/31 11:23:37;;;;;;;16.52;3.00;;;;;;;;;;4966529;28;20035;-58
2022/01/31 11:26:04;;;;;;;23.27;3.72;;;;;;;;;;4964002;28;20443;-57
2022/01/31 11:28:31;;;;;;;17.08;2.67;;;;;;;;;;4996255;28;20043;-57
2022/01/31 11:30:57;;;;;;;14.85;2.22;;;;;;;;;;4966057;28;20030;-57
2022/01/31 11:33:24;;;;;;;20.95;2.30;;;;;;;;;;4964817;28;20482;-58
2022/01/31 11:35:50;;;;;;;7.20;0.80;;;;;;;;;;4964839;28;20055;-58
2022/01/31 11:38:17;;;;;;;14.25;0.90;;;;;;;;;;4962356;28;20083;-58
2022/01/31 11:40:43;;;;;;;10.82;1.88;;;;;;;;;;4966474;28;20031;-57
2022/01/31 11:43:10;;;;;;;11.23;1.52;;;;;;;;;;4961714;28;20046;-57
2022/01/31 11:45:39;;;;;;;24.67;3.05;;;;;;;;;;4963508;28;20041;-58
2022/01/31 11:48:26;;;;;;;16.25;2.60;;;;;;;;;;4960566;28;20027;-57
2022/01/31 11:50:58;;;;;;;17.52;1.85;;;;;;;;;;4964562;28;20062;-57
2022/01/31 11:53:34;;;;;;;13.93;1.65;;;;;;;;;;4962231;28;20027;-57
2022/01/31 11:56:18;;;;;;;19.10;1.73;;;;;;;;;;4962745;28;20054;-57
2022/01/31 11:58:52;;;;;;;12.38;1.20;;;;;;;;;;4963851;28;20061;-58
2022/01/31 12:01:20;;;;;;;17.48;1.90;;;;;;;;;;4964789;28;20414;-57
2022/01/31 12:03:56;;;;;;;18.77;2.53;;;;;;;;;;4960831;28;20034;-58
2022/01/31 12:06:23;;;;;;;16.15;1.40;;;;;;;;;;4962343;28;20126;-58
2022/01/31 12:08:50;;;;;;;24.63;2.78;;;;;;;;;;4960607;28;20505;-56
2022/01/31 12:11:23;;;;;;;12.27;1.33;;;;;;;;;;4993206;28;20134;-57
2022/01/31 12:13:56;;;;;;;26.23;2.15;;;;;;;;;;4964603;28;20034;-57
2022/01/31 12:24:32;;;;;;;12.85;2.63;;;;;;;;;;4960632;28;20041;-58
2022/01/31 12:27:28;;;;;;;11.50;1.67;;;;;;;;;;4960710;28;20030;-57
2022/01/31 12:29:57;;;;;;;11.98;1.88;;;;;;;;;;4961198;28;20041;-58
2022/01/31 12:32:34;;;;;;;20.95;2.30;;;;;;;;;;4962043;28;20549;-59
2022/01/31 12:35:09;;;;;;;15.90;1.67;;;;;;;;;;4965135;28;20090;-58
2022/01/31 12:37:38;;;;;;;19.80;2.05;;;;;;;;;;4965104;28;20507;-59
2022/01/31 12:40:08;;;;;;;10.38;1.65;;;;;;;;;;4965584;28;20034;-58
2022/01/31 12:45:32;;;;;;;11.05;1.10;;;;;;;;;;4964037;28;20053;-57
2022/01/31 12:48:13;;;;;;;15.70;3.20;;;;;;;;;;4960354;28;20015;-58
2022/01/31 12:51:02;;;;;;;13.60;1.85;;;;;;;;;;4965864;28;20091;-58
2022/01/31 12:55:59;;;;;;;19.40;1.85;;;;;;;;;;4962491;28;20053;-58
2022/01/31 12:58:33;;;;;;;17.52;1.95;;;;;;;;;;4961590;28;20043;-58
2022/01/31 13:01:13;;;;;;;12.10;1.70;;;;;;;;;;4957565;28;20116;-58
2022/01/31 13:03:42;;;;;;;19.55;2.17;;;;;;;;;;4960115;28;20027;-57
2022/01/31 13:06:35;;;;;;;18.13;2.60;;;;;;;;;;4961713;28;20109;-58
2022/01/31 13:09:21;;;;;;;10.68;1.70;;;;;;;;;;4960302;28;20030;-58
2022/01/31 13:11:54;;;;;;;16.48;1.88;;;;;;;;;;4960727;28;20117;-58
2022/01/31 13:14:24;;;;;;;;;;;;;;;;;;4966329;28;20094;-59
2022/01/31 13:16:58;;;;;;;22.80;2.80;;;;;;;;;;4963996;28;19930;-59
2022/01/31 13:19:25;;;;;;;21.13;2.00;;;;;;;;;;4961850;28;20552;-58
2022/01/31 13:21:52;;;;;;;16.67;3.25;;;;;;;;;;4966638;28;20038;-54
2022/01/31 13:24:19;;;;;;;13.15;2.20;;;;;;;;;;4964612;28;20026;-58
2022/01/31 13:26:54;;;;;;;15.00;1.85;;;;;;;;;;4968290;28;20116;-58
2022/01/31 13:29:36;;;;;;;20.83;4.05;;;;;;;;;;4965284;28;20023;-58
2022/01/31 13:32:23;;;;;;;20.80;2.90;;;;;;;;;;4964704;28;20406;-59
2022/01/31 13:34:54;;;;;;;22.33;3.95;;;;;;;;;;4965301;28;20090;-58
2022/01/31 13:37:39;;;;;;;19.63;2.72;;;;;;;;;;4962517;28;20043;-59
2022/01/31 13:40:12;;;;;;;23.45;2.03;;;;;;;;;;4961401;28;20085;-59
2022/01/31 13:42:41;;;;;;;18.80;2.80;;;;;;;;;;4966195;28;20085;-58
2022/01/31 13:45:22;;;;;;;24.23;2.58;;;;;;;;;;4967252;28;20112;-59
2022/01/31 13:47:59;;;;;;;19.57;2.60;;;;;;;;;;4964137;28;20074;-59
2022/01/31 13:50:38;;;;;;;26.42;1.90;;;;;;;;;;4959971;28;20037;-58
2022/01/31 13:53:07;;;;;;;16.75;1.88;;;;;;;;;;4964200;28;20273;-58
2022/01/31 13:55:39;;;;;;;20.05;2.35;;;;;;;;;;4958234;28;20525;-59
2022/01/31 13:58:05;;;;;;;22.77;2.95;;;;;;;;;;4964066;28;20027;-58
2022/01/31 14:00:42;;;;;;;12.98;1.85;;;;;;;;;;4964326;28;20042;-59
2022/01/31 14:03:17;;;;;;;16.80;2.42;;;;;;;;;;4960885;28;20107;-59
2022/01/31 14:05:51;;;;;;;15.52;2.38;;;;;;;;;;4965039;28;20150;-59
2022/01/31 14:08:17;;;;;;;22.70;3.13;;;;;;;;;;4963946;28;20027;-59
2022/01/31 14:10:45;;;;;;;25.88;3.53;;;;;;;;;;4960804;28;20601;-59
2022/01/31 14:13:14;;;;;;;17.88;2.65;;;;;;;;;;4964415;28;20094;-57
2022/01/31 14:15:50;;;;;;;22.83;2.70;;;;;;;;;;4959840;28;20042;-59
2022/01/31 14:18:19;;;;;;;12.57;2.47;;;;;;;;;;4968952;28;20373;-58
2022/01/31 14:20:50;;;;;;;20.25;2.47;;;;;;;;;;4966345;28;20332;-59
2022/01/31 14:23:16;;;;;;;19.08;2.00;;;;;;;;;;4965206;28;20124;-59
2022/01/31 14:25:47;;;;;;;29.73;3.42;;;;;;;;;;4969036;28;20065;-59
2022/01/31 14:28:14;;;;;;;32.90;2.95;;;;;;;;;;4961467;28;20085;-59
2022/01/31 14:30:47;;;;;;;18.10;2.45;;;;;;;;;;4966058;28;20030;-59
2022/01/31 14:33:12;;;;;;;36.88;3.05;;;;;;;;;;4967260;28;20030;-59
2022/01/31 14:35:38;;;;;;;26.35;3.90;;;;;;;;;;4962409;28;20033;-59
2022/01/31 14:38:21;;;;;;;28.75;3.85;;;;;;;;;;4966778;28;20050;-59
2022/01/31 14:48:56;;;;;;;34.05;3.47;;;;;;;;;;4966017;28;20360;-59
2022/01/31 14:51:27;;;;;;;26.45;3.28;;;;;;;;;;4962724;28;20604;-59
2022/01/31 14:53:57;;;;;;;29.17;2.90;;;;;;;;;;4966411;28;20228;-58
2022/01/31 14:56:23;;;;;;;30.50;3.30;;;;;;;;;;4960150;28;20379;-59
2022/01/31 14:58:48;;;;;;;29.02;3.10;;;;;;;;;;4958442;28;20537;-59
2022/01/31 15:01:14;;;;;;;22.08;3.40;;;;;;;;;;4969143;28;20041;-59
2022/01/31 15:03:40;;;;;;;22.80;3.15;;;;;;;;;;4960792;28;20035;-59
2022/01/31 15:06:05;;;;;;;17.67;2.85;;;;;;;;;;4962534;28;20383;-58
2022/01/31 15:08:31;;;;;;;20.63;2.53;;;;;;;;;;4958264;28;20057;-50
2022/01/31 15:10:56;;;;;;;32.13;3.60;;;;;;;;;;4961495;28;20033;-49
2022/01/31 15:13:22;;;;;;;16.02;2.80;;;;;;;;;;4965445;28;20022;-47
2022/01/31 15:15:54;;;;;;;32.53;3.70;;;;;;;;;;4968161;28;20119;-48
2022/01/31 15:18:20;;;;;;;35.17;3.70;;;;;;;;;;4954565;28;20027;-47